首页
METAR-TAF:

METAR-TAF

机场 :

巴林国际机场

巴林, 巴林

纬度: 26-16N, 经度: 050-39E, 海拔: 2米

当前天气观测

该预报发布于10分钟前的20:30 UTC
风速18节,风向西北
温度 16°C
湿度 59%
气压 1023 hPa
能见度10公里或以上
少量云层高于4000英尺

METAR: OBBI 262030Z 32018KT 9999 FEW040 16/08 Q1023 NOSIG

时间: 23:40 (20:40 UTC)

预报

该预报发布于3小时和40分钟前的17:00 UTC
预报有效从26日的 18点(UTC)到 28日的 00点(UTC)
风速17节,风向西北,有时为27节阵风
能见度10公里或以上
少量云层高于3000英尺
成为
从 27日的 15点(UTC)到 27日的 17点(UTC)
风速15节,风向西北

TAF: OBBI 261700Z 2618/2800 31017G27KT 9999 FEW030 BECMG 2715/2717 32015KT

超过4000个机场的气象观测和天气预报(METAR&TAF报告)。

可查询的气象台以黄色和红色小点在地图上表示。

将鼠标移到小点上方,可查看气象台名称。

然后点击查看天气观测和预报。

如需切换地图:点击带黑十字的绿色按钮放大地图;点击带横线的绿色按钮缩小地图;或者点击绿色箭头查看邻近地区的地图。


METAR-TAF: